Weather at Hungaroring GoKart Center Heliport

Public forecast

Using degrees Celsius for public forecast. Weather courtesy of forecast.io.

Closest aviation weather report (METAR) to Hungaroring GoKart Center Heliport

Closest report is Budapest Liszt Ferenc International Airport, 8.9 nm (16.5 km) S.

2022/12/04 11:30 (retrieved 27 minutes ago)

LHBP 041130Z 10011KT CAVOK 07/03 Q1022 NOSIG

Closest aviation forecast (TAF) to Hungaroring GoKart Center Heliport

Closest forecast is Budapest Liszt Ferenc International Airport, 8.9 nm (16.5 km) S.

2022/12/04 06:27 (retrieved 5 hours ago)

TAF TAF LHBP 040515Z 0406/0506 08008KT 5000 BR BKN030 TEMPO 0406/0408 1500 BR BKN004 OVC010 BECMG 0408/0411 9999 NSW SCT020 BKN070 TEMPO 0416/0424 6000 -RA -SHRA BKN012 OVC020 BECMG 0500/0503 12005KT 5000 BR BKN010 OVC020 BECMG 0503/0506 2000 BR OVC004